sensor_id;sensor_type;location;lat;lon;timestamp;pressure;altitude;pressure_sealevel;temperature;humidity
50384;BME280;36301;48.310;12.786;2024-02-23T00:00:27;94150.34;;;9.60;99.79
50384;BME280;36301;48.310;12.786;2024-02-23T00:02:53;94153.38;;;9.35;100.00
50384;BME280;36301;48.310;12.786;2024-02-23T00:05:22;94158.63;;;9.62;100.00
50384;BME280;36301;48.310;12.786;2024-02-23T00:07:49;94148.03;;;9.62;100.00
50384;BME280;36301;48.310;12.786;2024-02-23T00:10:15;94160.50;;;9.85;99.54
50384;BME280;36301;48.310;12.786;2024-02-23T00:12:43;94168.00;;;10.10;98.14
50384;BME280;36301;48.310;12.786;2024-02-23T00:15:10;94186.09;;;10.11;98.45
50384;BME280;36301;48.310;12.786;2024-02-23T00:17:36;94214.25;;;9.98;99.48
50384;BME280;36301;48.310;12.786;2024-02-23T00:20:08;94288.72;;;9.43;100.00
50384;BME280;36301;48.310;12.786;2024-02-23T00:22:37;94338.59;;;9.37;100.00
50384;BME280;36301;48.310;12.786;2024-02-23T00:25:04;94369.75;;;8.84;100.00
50384;BME280;36301;48.310;12.786;2024-02-23T00:27:31;94370.56;;;8.78;100.00
50384;BME280;36301;48.310;12.786;2024-02-23T00:29:57;94362.41;;;9.03;100.00
50384;BME280;36301;48.310;12.786;2024-02-23T00:32:24;94366.06;;;9.13;100.00
50384;BME280;36301;48.310;12.786;2024-02-23T00:34:50;94366.56;;;9.34;100.00
50384;BME280;36301;48.310;12.786;2024-02-23T00:37:17;94362.66;;;9.43;100.00
50384;BME280;36301;48.310;12.786;2024-02-23T00:39:44;94352.91;;;9.40;100.00
50384;BME280;36301;48.310;12.786;2024-02-23T00:42:10;94350.81;;;9.58;100.00
50384;BME280;36301;48.310;12.786;2024-02-23T00:44:37;94337.66;;;9.51;100.00
50384;BME280;36301;48.310;12.786;2024-02-23T00:47:04;94346.81;;;9.43;100.00
50384;BME280;36301;48.310;12.786;2024-02-23T00:49:30;94348.06;;;9.34;100.00
50384;BME280;36301;48.310;12.786;2024-02-23T00:51:57;94338.56;;;9.41;100.00
50384;BME280;36301;48.310;12.786;2024-02-23T00:54:23;94334.88;;;9.61;100.00
50384;BME280;36301;48.310;12.786;2024-02-23T00:56:50;94337.03;;;9.70;100.00
50384;BME280;36301;48.310;12.786;2024-02-23T00:59:20;94336.25;;;9.73;100.00
50384;BME280;36301;48.310;12.786;2024-02-23T01:01:47;94334.28;;;9.77;100.00
50384;BME280;36301;48.310;12.786;2024-02-23T01:04:14;94332.72;;;9.83;100.00
50384;BME280;36301;48.310;12.786;2024-02-23T01:06:40;94336.25;;;9.73;100.00
50384;BME280;36301;48.310;12.786;2024-02-23T01:09:07;94338.81;;;9.77;100.00
50384;BME280;36301;48.310;12.786;2024-02-23T01:11:33;94344.25;;;9.66;100.00
50384;BME280;36301;48.310;12.786;2024-02-23T01:14:00;94345.44;;;9.61;100.00
50384;BME280;36301;48.310;12.786;2024-02-23T01:16:27;94354.25;;;9.51;100.00
50384;BME280;36301;48.310;12.786;2024-02-23T01:18:53;94367.84;;;9.53;100.00
50384;BME280;36301;48.310;12.786;2024-02-23T01:21:20;94358.75;;;9.54;100.00
50384;BME280;36301;48.310;12.786;2024-02-23T01:23:47;94364.00;;;9.58;100.00
50384;BME280;36301;48.310;12.786;2024-02-23T01:26:13;94363.88;;;9.69;100.00
50384;BME280;36301;48.310;12.786;2024-02-23T01:28:40;94357.03;;;9.41;100.00
50384;BME280;36301;48.310;12.786;2024-02-23T01:31:11;94364.94;;;9.44;100.00
50384;BME280;36301;48.310;12.786;2024-02-23T01:33:38;94364.69;;;9.62;100.00
50384;BME280;36301;48.310;12.786;2024-02-23T01:36:07;94366.28;;;9.25;100.00
50384;BME280;36301;48.310;12.786;2024-02-23T01:38:34;94350.59;;;9.42;100.00
50384;BME280;36301;48.310;12.786;2024-02-23T01:41:01;94367.50;;;9.78;100.00
50384;BME280;36301;48.310;12.786;2024-02-23T01:43:28;94354.03;;;9.69;98.71
50384;BME280;36301;48.310;12.786;2024-02-23T01:45:54;94349.59;;;9.32;99.71
50384;BME280;36301;48.310;12.786;2024-02-23T01:48:21;94361.69;;;9.33;99.24
50384;BME280;36301;48.310;12.786;2024-02-23T01:50:48;94355.84;;;9.45;99.41
50384;BME280;36301;48.310;12.786;2024-02-23T01:53:15;94364.81;;;9.21;99.73
50384;BME280;36301;48.310;12.786;2024-02-23T01:55:45;94369.81;;;9.46;98.65
50384;BME280;36301;48.310;12.786;2024-02-23T01:58:12;94381.34;;;9.28;98.31
50384;BME280;36301;48.310;12.786;2024-02-23T02:00:39;94355.63;;;9.32;97.67
50384;BME280;36301;48.310;12.786;2024-02-23T02:03:05;94383.34;;;9.48;97.60
50384;BME280;36301;48.310;12.786;2024-02-23T02:05:38;94376.66;;;9.43;96.82
50384;BME280;36301;48.310;12.786;2024-02-23T02:08:05;94379.78;;;9.31;97.68
50384;BME280;36301;48.310;12.786;2024-02-23T02:10:31;94388.19;;;9.22;97.18
50384;BME280;36301;48.310;12.786;2024-02-23T02:13:02;94395.72;;;9.24;96.20
50384;BME280;36301;48.310;12.786;2024-02-23T02:15:30;94398.88;;;9.46;96.16
50384;BME280;36301;48.310;12.786;2024-02-23T02:17:56;94399.28;;;9.44;94.61
50384;BME280;36301;48.310;12.786;2024-02-23T02:20:27;94394.75;;;9.41;94.52
50384;BME280;36301;48.310;12.786;2024-02-23T02:22:55;94393.31;;;9.36;94.68
50384;BME280;36301;48.310;12.786;2024-02-23T02:25:21;94386.09;;;9.41;93.98
50384;BME280;36301;48.310;12.786;2024-02-23T02:27:48;94395.28;;;9.29;93.44
50384;BME280;36301;48.310;12.786;2024-02-23T02:30:15;94399.09;;;9.28;93.96
50384;BME280;36301;48.310;12.786;2024-02-23T02:32:41;94404.94;;;9.43;92.92
50384;BME280;36301;48.310;12.786;2024-02-23T02:35:11;94414.28;;;9.51;91.98
50384;BME280;36301;48.310;12.786;2024-02-23T02:37:38;94405.13;;;9.59;92.38
50384;BME280;36301;48.310;12.786;2024-02-23T02:40:06;94411.22;;;9.52;92.31
50384;BME280;36301;48.310;12.786;2024-02-23T02:42:33;94392.44;;;9.47;92.62
50384;BME280;36301;48.310;12.786;2024-02-23T02:45:00;94405.91;;;9.56;92.07
50384;BME280;36301;48.310;12.786;2024-02-23T02:47:26;94408.66;;;9.49;92.04
50384;BME280;36301;48.310;12.786;2024-02-23T02:49:53;94412.16;;;9.39;91.84
50384;BME280;36301;48.310;12.786;2024-02-23T02:52:20;94417.69;;;9.48;92.21
50384;BME280;36301;48.310;12.786;2024-02-23T02:54:50;94421.94;;;9.42;92.96
50384;BME280;36301;48.310;12.786;2024-02-23T02:57:16;94423.25;;;9.57;91.92
50384;BME280;36301;48.310;12.786;2024-02-23T02:59:43;94424.78;;;9.58;91.38
50384;BME280;36301;48.310;12.786;2024-02-23T03:02:10;94426.13;;;9.39;92.27
50384;BME280;36301;48.310;12.786;2024-02-23T03:04:37;94442.34;;;9.38;92.33
50384;BME280;36301;48.310;12.786;2024-02-23T03:07:04;94449.09;;;9.42;92.90
50384;BME280;36301;48.310;12.786;2024-02-23T03:09:31;94456.69;;;9.36;91.81
50384;BME280;36301;48.310;12.786;2024-02-23T03:11:57;94451.28;;;9.47;91.82
50384;BME280;36301;48.310;12.786;2024-02-23T03:14:25;94460.44;;;9.39;91.56
50384;BME280;36301;48.310;12.786;2024-02-23T03:16:52;94454.56;;;9.24;92.46
50384;BME280;36301;48.310;12.786;2024-02-23T03:19:19;94471.25;;;9.52;91.38
50384;BME280;36301;48.310;12.786;2024-02-23T03:21:49;94471.19;;;9.59;89.84
50384;BME280;36301;48.310;12.786;2024-02-23T03:24:16;94477.50;;;9.69;89.81
50384;BME280;36301;48.310;12.786;2024-02-23T03:26:42;94472.50;;;9.74;88.35
50384;BME280;36301;48.310;12.786;2024-02-23T03:29:10;94481.03;;;9.89;87.78
50384;BME280;36301;48.310;12.786;2024-02-23T03:31:37;94471.63;;;9.84;88.51
50384;BME280;36301;48.310;12.786;2024-02-23T03:34:03;94483.25;;;9.91;88.22
50384;BME280;36301;48.310;12.786;2024-02-23T03:36:30;94482.94;;;9.54;90.16
50384;BME280;36301;48.310;12.786;2024-02-23T03:38:56;94481.09;;;9.48;89.70
50384;BME280;36301;48.310;12.786;2024-02-23T03:41:23;94478.81;;;9.50;89.24
50384;BME280;36301;48.310;12.786;2024-02-23T03:43:50;94488.88;;;9.62;89.17
50384;BME280;36301;48.310;12.786;2024-02-23T03:46:16;94478.31;;;9.62;88.96
50384;BME280;36301;48.310;12.786;2024-02-23T03:48:44;94495.00;;;9.55;88.59
50384;BME280;36301;48.310;12.786;2024-02-23T03:51:12;94505.56;;;9.55;88.51
50384;BME280;36301;48.310;12.786;2024-02-23T03:53:39;94507.59;;;9.78;87.77
50384;BME280;36301;48.310;12.786;2024-02-23T03:56:05;94507.63;;;9.75;88.20
50384;BME280;36301;48.310;12.786;2024-02-23T03:58:32;94513.50;;;9.90;87.25
50384;BME280;36301;48.310;12.786;2024-02-23T04:00:58;94514.66;;;9.85;87.92
50384;BME280;36301;48.310;12.786;2024-02-23T04:03:25;94517.50;;;9.67;87.85
50384;BME280;36301;48.310;12.786;2024-02-23T04:05:51;94531.44;;;9.71;87.49
50384;BME280;36301;48.310;12.786;2024-02-23T04:08:18;94527.63;;;9.38;88.84
50384;BME280;36301;48.310;12.786;2024-02-23T04:10:44;94527.88;;;9.51;88.62
50384;BME280;36301;48.310;12.786;2024-02-23T04:13:11;94537.41;;;9.38;88.36
50384;BME280;36301;48.310;12.786;2024-02-23T04:15:40;94530.53;;;9.47;88.40
50384;BME280;36301;48.310;12.786;2024-02-23T04:18:06;94541.50;;;9.46;88.61
50384;BME280;36301;48.310;12.786;2024-02-23T04:20:33;94542.56;;;9.52;88.78
50384;BME280;36301;48.310;12.786;2024-02-23T04:23:00;94549.50;;;9.76;88.11
50384;BME280;36301;48.310;12.786;2024-02-23T04:25:26;94548.63;;;9.86;87.97
50384;BME280;36301;48.310;12.786;2024-02-23T04:27:53;94575.63;;;9.29;90.73
50384;BME280;36301;48.310;12.786;2024-02-23T04:30:20;94569.75;;;8.52;96.67
50384;BME280;36301;48.310;12.786;2024-02-23T04:32:46;94578.78;;;8.54;97.67
50384;BME280;36301;48.310;12.786;2024-02-23T04:35:14;94583.31;;;8.54;99.02
50384;BME280;36301;48.310;12.786;2024-02-23T04:37:43;94584.84;;;8.44;99.24
50384;BME280;36301;48.310;12.786;2024-02-23T04:40:11;94587.97;;;8.21;99.86
50384;BME280;36301;48.310;12.786;2024-02-23T04:42:38;94581.88;;;8.31;99.53
50384;BME280;36301;48.310;12.786;2024-02-23T04:45:05;94584.53;;;8.31;99.22
50384;BME280;36301;48.310;12.786;2024-02-23T04:47:32;94587.50;;;8.41;99.02
50384;BME280;36301;48.310;12.786;2024-02-23T04:49:59;94582.00;;;7.99;99.69
50384;BME280;36301;48.310;12.786;2024-02-23T04:52:25;94585.81;;;7.88;100.00
50384;BME280;36301;48.310;12.786;2024-02-23T04:54:52;94582.03;;;7.89;100.00
50384;BME280;36301;48.310;12.786;2024-02-23T04:57:19;94575.69;;;7.72;100.00
50384;BME280;36301;48.310;12.786;2024-02-23T04:59:45;94573.38;;;7.88;100.00
50384;BME280;36301;48.310;12.786;2024-02-23T05:02:12;94581.22;;;8.13;99.17
50384;BME280;36301;48.310;12.786;2024-02-23T05:04:39;94578.13;;;8.25;98.43
50384;BME280;36301;48.310;12.786;2024-02-23T05:07:06;94575.09;;;8.30;98.49
50384;BME280;36301;48.310;12.786;2024-02-23T05:09:32;94574.44;;;8.12;97.40
50384;BME280;36301;48.310;12.786;2024-02-23T05:11:59;94567.19;;;8.34;96.81
50384;BME280;36301;48.310;12.786;2024-02-23T05:14:26;94573.97;;;8.39;96.25
50384;BME280;36301;48.310;12.786;2024-02-23T05:16:53;94571.19;;;8.64;95.61
50384;BME280;36301;48.310;12.786;2024-02-23T05:19:19;94571.47;;;8.76;93.71
50384;BME280;36301;48.310;12.786;2024-02-23T05:21:46;94570.03;;;8.68;94.67
50384;BME280;36301;48.310;12.786;2024-02-23T05:24:12;94587.81;;;8.53;95.09
50384;BME280;36301;48.310;12.786;2024-02-23T05:26:39;94582.13;;;8.62;95.45
50384;BME280;36301;48.310;12.786;2024-02-23T05:29:06;94568.22;;;8.51;95.33
50384;BME280;36301;48.310;12.786;2024-02-23T05:31:48;94581.75;;;8.56;93.84
50384;BME280;36301;48.310;12.786;2024-02-23T05:34:15;94591.16;;;8.61;95.71
50384;BME280;36301;48.310;12.786;2024-02-23T05:36:42;94600.16;;;8.71;95.53
50384;BME280;36301;48.310;12.786;2024-02-23T05:39:09;94590.41;;;8.64;95.29
50384;BME280;36301;48.310;12.786;2024-02-23T05:41:36;94591.19;;;8.57;95.40
50384;BME280;36301;48.310;12.786;2024-02-23T05:44:04;94597.59;;;8.60;96.94
50384;BME280;36301;48.310;12.786;2024-02-23T05:46:32;94597.56;;;8.64;96.00
50384;BME280;36301;48.310;12.786;2024-02-23T05:48:59;94603.59;;;8.68;94.78
50384;BME280;36301;48.310;12.786;2024-02-23T05:51:28;94591.16;;;8.61;95.77
50384;BME280;36301;48.310;12.786;2024-02-23T05:53:56;94602.44;;;8.65;96.38
50384;BME280;36301;48.310;12.786;2024-02-23T05:56:23;94608.84;;;8.68;95.46
50384;BME280;36301;48.310;12.786;2024-02-23T05:58:52;94603.66;;;8.57;96.35
50384;BME280;36301;48.310;12.786;2024-02-23T06:01:19;94600.94;;;8.68;95.99
50384;BME280;36301;48.310;12.786;2024-02-23T06:03:46;94602.56;;;8.44;96.19
50384;BME280;36301;48.310;12.786;2024-02-23T06:06:13;94603.72;;;8.32;95.91
50384;BME280;36301;48.310;12.786;2024-02-23T06:08:40;94579.66;;;8.23;96.43
50384;BME280;36301;48.310;12.786;2024-02-23T06:11:09;94589.09;;;8.17;97.61
50384;BME280;36301;48.310;12.786;2024-02-23T06:13:36;94595.47;;;8.19;97.14
50384;BME280;36301;48.310;12.786;2024-02-23T06:16:10;94581.94;;;8.17;96.73
50384;BME280;36301;48.310;12.786;2024-02-23T06:18:37;94598.13;;;8.19;96.38
50384;BME280;36301;48.310;12.786;2024-02-23T06:21:17;94603.44;;;8.09;96.49
50384;BME280;36301;48.310;12.786;2024-02-23T06:23:44;94601.50;;;8.20;95.82
50384;BME280;36301;48.310;12.786;2024-02-23T06:26:11;94610.81;;;8.49;94.92
50384;BME280;36301;48.310;12.786;2024-02-23T06:28:38;94611.63;;;8.43;93.49
50384;BME280;36301;48.310;12.786;2024-02-23T06:31:08;94605.25;;;8.37;94.21
50384;BME280;36301;48.310;12.786;2024-02-23T06:33:35;94600.31;;;8.42;94.19
50384;BME280;36301;48.310;12.786;2024-02-23T06:36:02;94598.06;;;8.33;92.84
50384;BME280;36301;48.310;12.786;2024-02-23T06:38:30;94600.72;;;8.30;92.19
50384;BME280;36301;48.310;12.786;2024-02-23T06:40:57;94619.94;;;8.38;91.91
50384;BME280;36301;48.310;12.786;2024-02-23T06:43:23;94621.38;;;8.53;92.64
50384;BME280;36301;48.310;12.786;2024-02-23T06:45:50;94625.16;;;8.45;93.76
50384;BME280;36301;48.310;12.786;2024-02-23T06:48:17;94627.44;;;8.43;94.13
50384;BME280;36301;48.310;12.786;2024-02-23T06:50:44;94632.41;;;8.16;95.70
50384;BME280;36301;48.310;12.786;2024-02-23T06:53:10;94641.84;;;8.10;96.06
50384;BME280;36301;48.310;12.786;2024-02-23T06:55:37;94641.44;;;8.22;94.76
50384;BME280;36301;48.310;12.786;2024-02-23T06:58:04;94635.44;;;8.11;96.60
50384;BME280;36301;48.310;12.786;2024-02-23T07:00:31;94640.72;;;8.07;96.14
50384;BME280;36301;48.310;12.786;2024-02-23T07:02:58;94635.06;;;8.05;96.50
50384;BME280;36301;48.310;12.786;2024-02-23T07:05:25;94633.25;;;7.91;97.21
50384;BME280;36301;48.310;12.786;2024-02-23T07:07:52;94638.13;;;7.93;96.58
50384;BME280;36301;48.310;12.786;2024-02-23T07:10:19;94637.72;;;7.98;94.80
50384;BME280;36301;48.310;12.786;2024-02-23T07:12:46;94648.69;;;7.71;94.82
50384;BME280;36301;48.310;12.786;2024-02-23T07:15:14;94641.91;;;7.88;92.87
50384;BME280;36301;48.310;12.786;2024-02-23T07:17:40;94641.91;;;7.92;91.79
50384;BME280;36301;48.310;12.786;2024-02-23T07:20:07;94632.38;;;8.19;90.73
50384;BME280;36301;48.310;12.786;2024-02-23T07:22:34;94637.31;;;8.10;91.87
50384;BME280;36301;48.310;12.786;2024-02-23T07:25:00;94639.59;;;8.04;91.03
50384;BME280;36301;48.310;12.786;2024-02-23T07:27:30;94630.22;;;7.96;90.80
50384;BME280;36301;48.310;12.786;2024-02-23T07:29:57;94656.50;;;8.21;88.83
50384;BME280;36301;48.310;12.786;2024-02-23T07:32:24;94654.63;;;8.15;89.12
50384;BME280;36301;48.310;12.786;2024-02-23T07:34:51;94653.44;;;8.30;88.63
50384;BME280;36301;48.310;12.786;2024-02-23T07:37:17;94664.00;;;8.37;88.91
50384;BME280;36301;48.310;12.786;2024-02-23T07:39:44;94661.81;;;8.07;87.83
50384;BME280;36301;48.310;12.786;2024-02-23T07:42:11;94651.19;;;8.28;86.54
50384;BME280;36301;48.310;12.786;2024-02-23T07:44:39;94659.84;;;8.25;86.16
50384;BME280;36301;48.310;12.786;2024-02-23T07:47:05;94662.16;;;8.16;85.61
50384;BME280;36301;48.310;12.786;2024-02-23T07:49:32;94661.78;;;8.21;85.63
50384;BME280;36301;48.310;12.786;2024-02-23T07:51:59;94664.38;;;8.32;85.85
50384;BME280;36301;48.310;12.786;2024-02-23T07:54:26;94667.44;;;8.05;85.25
50384;BME280;36301;48.310;12.786;2024-02-23T07:56:52;94665.47;;;8.52;84.45
50384;BME280;36301;48.310;12.786;2024-02-23T07:59:19;94665.13;;;8.32;85.25
50384;BME280;36301;48.310;12.786;2024-02-23T08:01:46;94673.44;;;8.27;84.77
50384;BME280;36301;48.310;12.786;2024-02-23T08:04:13;94669.34;;;8.05;87.05
50384;BME280;36301;48.310;12.786;2024-02-23T08:06:40;94665.13;;;8.25;86.03
50384;BME280;36301;48.310;12.786;2024-02-23T08:09:06;94666.63;;;8.33;85.73
50384;BME280;36301;48.310;12.786;2024-02-23T08:11:34;94654.66;;;8.04;87.31
50384;BME280;36301;48.310;12.786;2024-02-23T08:14:02;94659.91;;;8.22;86.36
50384;BME280;36301;48.310;12.786;2024-02-23T08:16:29;94658.44;;;7.92;89.11
50384;BME280;36301;48.310;12.786;2024-02-23T08:18:56;94660.31;;;8.02;88.14
50384;BME280;36301;48.310;12.786;2024-02-23T08:21:22;94656.16;;;8.12;89.64
50384;BME280;36301;48.310;12.786;2024-02-23T08:23:49;94661.75;;;8.28;86.70
50384;BME280;36301;48.310;12.786;2024-02-23T08:26:15;94658.72;;;8.30;87.11
50384;BME280;36301;48.310;12.786;2024-02-23T08:28:42;94657.19;;;8.47;85.97
50384;BME280;36301;48.310;12.786;2024-02-23T08:31:09;94644.78;;;8.26;88.34
50384;BME280;36301;48.310;12.786;2024-02-23T08:33:35;94646.56;;;8.61;85.92
50384;BME280;36301;48.310;12.786;2024-02-23T08:36:03;94629.97;;;8.64;86.25
50384;BME280;36301;48.310;12.786;2024-02-23T08:38:32;94634.31;;;8.96;84.87
50384;BME280;36301;48.310;12.786;2024-02-23T08:40:59;94629.84;;;8.86;84.65
50384;BME280;36301;48.310;12.786;2024-02-23T08:43:26;94631.34;;;8.87;84.84
50384;BME280;36301;48.310;12.786;2024-02-23T08:45:52;94618.19;;;8.83;84.08
50384;BME280;36301;48.310;12.786;2024-02-23T08:48:19;94619.53;;;9.05;84.32
50384;BME280;36301;48.310;12.786;2024-02-23T08:50:45;94618.59;;;9.33;83.14
50384;BME280;36301;48.310;12.786;2024-02-23T08:53:12;94628.22;;;9.54;81.73
50384;BME280;36301;48.310;12.786;2024-02-23T08:55:38;94622.72;;;9.34;80.91
50384;BME280;36301;48.310;12.786;2024-02-23T08:58:05;94623.88;;;9.78;79.98
50384;BME280;36301;48.310;12.786;2024-02-23T09:00:35;94619.66;;;9.84;80.38
50384;BME280;36301;48.310;12.786;2024-02-23T09:06:51;94627.28;;;9.75;79.64
50384;BME280;36301;48.310;12.786;2024-02-23T09:09:19;94617.28;;;9.94;78.99
50384;BME280;36301;48.310;12.786;2024-02-23T09:11:46;94609.44;;;9.83;77.25
50384;BME280;36301;48.310;12.786;2024-02-23T09:14:13;94608.72;;;9.82;78.30
50384;BME280;36301;48.310;12.786;2024-02-23T09:16:40;94612.63;;;9.67;78.07
50384;BME280;36301;48.310;12.786;2024-02-23T09:19:06;94626.94;;;9.73;77.96
50384;BME280;36301;48.310;12.786;2024-02-23T09:21:33;94641.66;;;9.74;78.39
50384;BME280;36301;48.310;12.786;2024-02-23T09:24:00;94650.56;;;9.87;80.05
50384;BME280;36301;48.310;12.786;2024-02-23T09:26:26;94658.22;;;9.78;78.49
50384;BME280;36301;48.310;12.786;2024-02-23T09:28:53;94651.06;;;9.30;79.32
50384;BME280;36301;48.310;12.786;2024-02-23T09:31:19;94648.97;;;9.56;78.60
50384;BME280;36301;48.310;12.786;2024-02-23T09:33:46;94654.22;;;9.59;78.63
50384;BME280;36301;48.310;12.786;2024-02-23T09:36:15;94659.56;;;9.52;78.56
50384;BME280;36301;48.310;12.786;2024-02-23T09:38:41;94652.34;;;9.60;79.83
50384;BME280;36301;48.310;12.786;2024-02-23T09:41:23;94670.00;;;9.18;80.28
50384;BME280;36301;48.310;12.786;2024-02-23T09:43:50;94673.50;;;9.04;81.41
50384;BME280;36301;48.310;12.786;2024-02-23T09:46:20;94679.50;;;9.08;80.32
50384;BME280;36301;48.310;12.786;2024-02-23T09:48:48;94683.84;;;8.70;81.99
50384;BME280;36301;48.310;12.786;2024-02-23T09:51:16;94694.94;;;9.10;81.06
50384;BME280;36301;48.310;12.786;2024-02-23T09:53:44;94691.56;;;9.06;81.06
50384;BME280;36301;48.310;12.786;2024-02-23T09:56:10;94694.66;;;8.94;81.44
50384;BME280;36301;48.310;12.786;2024-02-23T09:58:39;94703.34;;;8.91;81.23
50384;BME280;36301;48.310;12.786;2024-02-23T10:01:06;94701.50;;;8.80;81.41
50384;BME280;36301;48.310;12.786;2024-02-23T10:03:32;94707.19;;;8.75;81.99
50384;BME280;36301;48.310;12.786;2024-02-23T10:05:59;94708.72;;;8.69;83.28
50384;BME280;36301;48.310;12.786;2024-02-23T10:08:28;94698.88;;;8.80;83.33
50384;BME280;36301;48.310;12.786;2024-02-23T10:10:55;94693.69;;;8.59;83.41
50384;BME280;36301;48.310;12.786;2024-02-23T10:13:23;94699.34;;;8.57;85.19
50384;BME280;36301;48.310;12.786;2024-02-23T10:15:53;94696.72;;;8.57;85.07
50384;BME280;36301;48.310;12.786;2024-02-23T10:18:39;94686.59;;;8.38;86.13
50384;BME280;36301;48.310;12.786;2024-02-23T10:21:06;94690.69;;;8.50;85.36
50384;BME280;36301;48.310;12.786;2024-02-23T10:23:33;94690.38;;;8.19;86.48
50384;BME280;36301;48.310;12.786;2024-02-23T10:26:05;94699.00;;;8.41;87.78
50384;BME280;36301;48.310;12.786;2024-02-23T10:28:32;94690.75;;;8.43;86.65
50384;BME280;36301;48.310;12.786;2024-02-23T10:30:59;94692.19;;;8.51;86.02
50384;BME280;36301;48.310;12.786;2024-02-23T10:33:28;94699.31;;;8.68;86.77
50384;BME280;36301;48.310;12.786;2024-02-23T10:35:56;94690.91;;;8.91;85.39
50384;BME280;36301;48.310;12.786;2024-02-23T10:38:26;94689.06;;;8.81;85.38
50384;BME280;36301;48.310;12.786;2024-02-23T10:40:55;94690.84;;;9.02;84.81
50384;BME280;36301;48.310;12.786;2024-02-23T10:43:41;94689.94;;;8.53;86.39
50384;BME280;36301;48.310;12.786;2024-02-23T10:46:11;94689.91;;;8.67;86.86
50384;BME280;36301;48.310;12.786;2024-02-23T10:48:44;94683.97;;;8.27;87.86
50384;BME280;36301;48.310;12.786;2024-02-23T10:51:14;94688.09;;;8.39;88.17
50384;BME280;36301;48.310;12.786;2024-02-23T10:53:46;94686.22;;;8.25;89.81
50384;BME280;36301;48.310;12.786;2024-02-23T10:56:14;94694.13;;;8.32;89.50
50384;BME280;36301;48.310;12.786;2024-02-23T10:58:41;94685.09;;;8.33;89.31
50384;BME280;36301;48.310;12.786;2024-02-23T11:01:09;94683.19;;;8.34;91.65
50384;BME280;36301;48.310;12.786;2024-02-23T11:03:37;94685.91;;;8.02;91.78
50384;BME280;36301;48.310;12.786;2024-02-23T11:06:08;94688.41;;;8.55;89.44
50384;BME280;36301;48.310;12.786;2024-02-23T11:08:35;94686.97;;;8.29;88.88
50384;BME280;36301;48.310;12.786;2024-02-23T11:11:10;94692.16;;;8.65;88.88
50384;BME280;36301;48.310;12.786;2024-02-23T11:13:39;94689.84;;;8.71;89.22
50384;BME280;36301;48.310;12.786;2024-02-23T11:16:08;94687.66;;;8.62;89.50
50384;BME280;36301;48.310;12.786;2024-02-23T11:18:39;94690.22;;;8.76;89.06
50384;BME280;36301;48.310;12.786;2024-02-23T11:21:09;94691.50;;;8.36;88.04
50384;BME280;36301;48.310;12.786;2024-02-23T11:23:43;94686.22;;;8.32;89.00
50384;BME280;36301;48.310;12.786;2024-02-23T11:26:11;94688.00;;;8.68;86.00
50384;BME280;36301;48.310;12.786;2024-02-23T11:28:42;94684.84;;;8.94;83.79
50384;BME280;36301;48.310;12.786;2024-02-23T11:31:13;94699.22;;;8.86;83.12
50384;BME280;36301;48.310;12.786;2024-02-23T11:33:47;94681.75;;;9.10;81.67
50384;BME280;36301;48.310;12.786;2024-02-23T11:36:43;94675.00;;;9.02;80.40
50384;BME280;36301;48.310;12.786;2024-02-23T11:39:09;94687.56;;;8.76;82.16
50384;BME280;36301;48.310;12.786;2024-02-23T11:41:38;94686.38;;;8.92;82.82
50384;BME280;36301;48.310;12.786;2024-02-23T11:44:04;94681.16;;;8.81;82.03
50384;BME280;36301;48.310;12.786;2024-02-23T11:46:33;94678.53;;;8.77;81.63
50384;BME280;36301;48.310;12.786;2024-02-23T11:49:00;94677.75;;;8.84;81.21
50384;BME280;36301;48.310;12.786;2024-02-23T11:51:26;94676.66;;;8.78;81.17
50384;BME280;36301;48.310;12.786;2024-02-23T11:53:55;94671.53;;;8.39;83.68
50384;BME280;36301;48.310;12.786;2024-02-23T11:56:26;94685.06;;;8.48;84.20
50384;BME280;36301;48.310;12.786;2024-02-23T11:58:54;94689.56;;;8.51;83.33
50384;BME280;36301;48.310;12.786;2024-02-23T12:01:22;94685.06;;;8.41;82.96
50384;BME280;36301;48.310;12.786;2024-02-23T12:03:48;94690.31;;;8.55;84.07
50384;BME280;36301;48.310;12.786;2024-02-23T12:06:15;94676.44;;;8.29;84.32
50384;BME280;36301;48.310;12.786;2024-02-23T12:08:42;94680.97;;;8.15;87.12
50384;BME280;36301;48.310;12.786;2024-02-23T12:11:11;94683.56;;;8.40;86.00
50384;BME280;36301;48.310;12.786;2024-02-23T12:13:38;94685.91;;;8.16;87.00
50384;BME280;36301;48.310;12.786;2024-02-23T12:16:07;94681.03;;;7.93;88.96
50384;BME280;36301;48.310;12.786;2024-02-23T12:18:34;94684.03;;;7.85;89.67
50384;BME280;36301;48.310;12.786;2024-02-23T12:21:04;94685.19;;;7.80;89.30
50384;BME280;36301;48.310;12.786;2024-02-23T12:23:44;94695.34;;;7.82;90.88
50384;BME280;36301;48.310;12.786;2024-02-23T12:26:15;94693.13;;;7.66;88.09
50384;BME280;36301;48.310;12.786;2024-02-23T12:28:43;94685.94;;;7.27;89.57
50384;BME280;36301;48.310;12.786;2024-02-23T12:31:10;94688.19;;;7.39;90.30
50384;BME280;36301;48.310;12.786;2024-02-23T12:33:38;94685.19;;;7.37;90.72
50384;BME280;36301;48.310;12.786;2024-02-23T12:36:08;94680.69;;;7.48;88.02
50384;BME280;36301;48.310;12.786;2024-02-23T12:38:35;94680.69;;;7.31;90.35
50384;BME280;36301;48.310;12.786;2024-02-23T12:41:03;94691.56;;;7.75;87.93
50384;BME280;36301;48.310;12.786;2024-02-23T12:43:31;94705.91;;;7.82;89.00
50384;BME280;36301;48.310;12.786;2024-02-23T12:45:58;94695.75;;;7.51;91.18
50384;BME280;36301;48.310;12.786;2024-02-23T12:48:24;94697.25;;;7.77;90.37
50384;BME280;36301;48.310;12.786;2024-02-23T12:50:51;94682.19;;;7.71;89.45
50384;BME280;36301;48.310;12.786;2024-02-23T12:53:44;94683.69;;;7.68;89.43
50384;BME280;36301;48.310;12.786;2024-02-23T12:56:13;94684.81;;;7.89;90.31
50384;BME280;36301;48.310;12.786;2024-02-23T12:58:41;94679.16;;;7.94;89.11
50384;BME280;36301;48.310;12.786;2024-02-23T13:01:09;94667.84;;;7.93;89.82
50384;BME280;36301;48.310;12.786;2024-02-23T13:03:37;94652.03;;;7.97;89.02
50384;BME280;36301;48.310;12.786;2024-02-23T13:06:04;94655.00;;;8.13;87.89